createdAt,value
2024-03-13T00:01:15.245Z,97343.05
2024-03-13T00:03:52.976Z,97340.37
2024-03-13T00:06:26.539Z,97339.00
2024-03-13T00:09:00.714Z,97339.91
2024-03-13T00:11:34.598Z,97345.10
2024-03-13T00:14:08.272Z,97349.39
2024-03-13T00:16:42.178Z,97347.80
2024-03-13T00:19:15.763Z,97344.54
2024-03-13T00:21:49.272Z,97344.64
2024-03-13T00:24:22.704Z,97345.48
2024-03-13T00:26:59.202Z,97343.66
2024-03-13T00:29:32.933Z,97345.59
2024-03-13T00:32:06.985Z,97350.73
2024-03-13T00:34:41.038Z,97357.52
2024-03-13T00:37:15.525Z,97351.48
2024-03-13T00:39:49.125Z,97347.20
2024-03-13T00:42:22.971Z,97350.70
2024-03-13T00:44:56.755Z,97350.66
2024-03-13T00:47:31.488Z,97346.60
2024-03-13T00:50:05.935Z,97347.92
2024-03-13T00:52:40.090Z,97349.91
2024-03-13T00:55:13.980Z,97355.39
2024-03-13T00:57:48.297Z,97353.62
2024-03-13T01:00:27.706Z,97351.40
2024-03-13T01:03:01.896Z,97347.47
2024-03-13T01:05:35.830Z,97349.32
2024-03-13T01:08:10.825Z,97349.15
2024-03-13T01:10:44.820Z,97345.05
2024-03-13T01:13:20.411Z,97344.63
2024-03-13T01:15:54.214Z,97340.98
2024-03-13T01:18:28.434Z,97344.08
2024-03-13T01:21:02.472Z,97343.77
2024-03-13T01:23:36.772Z,97344.71
2024-03-13T01:26:10.378Z,97343.98
2024-03-13T01:28:45.422Z,97348.58
2024-03-13T01:31:20.831Z,97341.05
2024-03-13T01:33:57.786Z,97342.27
2024-03-13T01:36:45.123Z,97341.29
2024-03-13T01:39:19.356Z,97341.84
2024-03-13T01:42:10.093Z,97342.86
2024-03-13T01:45:27.818Z,97341.02
2024-03-13T01:48:19.103Z,97337.44
2024-03-13T01:51:10.664Z,97337.91
2024-03-13T01:54:02.076Z,97343.11
2024-03-13T01:56:35.713Z,97338.35
2024-03-13T01:59:22.288Z,97339.89
2024-03-13T02:02:14.029Z,97344.12
2024-03-13T02:04:49.946Z,97344.98
2024-03-13T02:07:24.337Z,97345.13
2024-03-13T02:10:00.114Z,97343.80
2024-03-13T02:12:33.932Z,97344.98
2024-03-13T02:15:08.698Z,97344.23
2024-03-13T02:17:43.450Z,97343.19
2024-03-13T02:20:17.071Z,97341.59
2024-03-13T02:22:51.896Z,97339.99
2024-03-13T02:25:22.756Z,97346.95
2024-03-13T02:27:54.026Z,97345.14
2024-03-13T02:30:24.436Z,97341.36
2024-03-13T02:32:55.214Z,97334.25
2024-03-13T02:35:25.746Z,97337.47
2024-03-13T02:37:56.700Z,97334.98
2024-03-13T02:40:27.016Z,97330.16
2024-03-13T02:42:57.602Z,97328.56
2024-03-13T02:45:28.923Z,97324.31
2024-03-13T02:47:59.462Z,97324.65
2024-03-13T02:50:30.559Z,97326.88
2024-03-13T02:53:01.157Z,97330.02
2024-03-13T02:55:31.560Z,97327.23
2024-03-13T02:58:04.059Z,97324.23
2024-03-13T03:00:34.700Z,97329.88
2024-03-13T03:03:05.116Z,97327.56
2024-03-13T03:05:37.089Z,97326.09
2024-03-13T03:08:08.605Z,97325.89
2024-03-13T03:10:39.724Z,97324.00
2024-03-13T03:13:12.180Z,97331.92
2024-03-13T03:15:44.604Z,97332.48
2024-03-13T03:18:15.000Z,97337.17
2024-03-13T03:20:47.240Z,97344.95
2024-03-13T03:23:18.509Z,97345.71
2024-03-13T03:25:50.049Z,97350.37
2024-03-13T03:28:20.993Z,97352.33
2024-03-13T03:30:53.209Z,97356.84
2024-03-13T03:33:24.749Z,97355.13
2024-03-13T03:35:55.058Z,97356.34
2024-03-13T03:38:27.525Z,97361.88
2024-03-13T03:40:57.973Z,97362.67
2024-03-13T03:43:28.729Z,97366.13
2024-03-13T03:45:59.376Z,97368.24
2024-03-13T03:48:29.931Z,97367.31
2024-03-13T03:51:00.807Z,97369.56
2024-03-13T03:53:31.232Z,97366.34
2024-03-13T03:56:02.521Z,97363.17
2024-03-13T03:58:32.999Z,97361.23
2024-03-13T04:01:03.704Z,97361.05
2024-03-13T04:03:34.451Z,97360.78
2024-03-13T04:06:06.381Z,97358.85
2024-03-13T04:08:37.357Z,97362.15
2024-03-13T04:11:07.974Z,97360.50
2024-03-13T04:13:38.712Z,97361.62
2024-03-13T04:16:11.901Z,97363.01
2024-03-13T04:18:44.872Z,97368.79
2024-03-13T04:21:15.281Z,97374.82
2024-03-13T04:23:51.119Z,97377.42
2024-03-13T04:26:21.460Z,97379.03
2024-03-13T04:28:52.741Z,97380.42
2024-03-13T04:31:23.730Z,97376.03
2024-03-13T04:33:55.673Z,97375.27
2024-03-13T04:36:26.373Z,97376.89
2024-03-13T04:38:56.988Z,97371.69
2024-03-13T04:41:27.795Z,97374.67
2024-03-13T04:43:58.226Z,97381.04
2024-03-13T04:46:28.625Z,97381.64
2024-03-13T04:48:59.081Z,97383.52
2024-03-13T04:51:29.711Z,97383.80
2024-03-13T04:54:00.220Z,97381.91
2024-03-13T04:56:30.696Z,97377.59
2024-03-13T04:59:01.222Z,97376.32
2024-03-13T05:01:32.303Z,97377.77
2024-03-13T05:04:03.092Z,97374.13
2024-03-13T05:06:33.936Z,97378.80
2024-03-13T05:09:05.208Z,97375.32
2024-03-13T05:11:35.863Z,97380.52
2024-03-13T05:14:07.720Z,97381.23
2024-03-13T05:16:41.955Z,97386.42
2024-03-13T05:19:12.390Z,97376.98
2024-03-13T05:21:42.738Z,97378.98
2024-03-13T05:24:15.540Z,97377.40
2024-03-13T05:26:45.935Z,97377.95
2024-03-13T05:29:16.437Z,97374.70
2024-03-13T05:31:48.192Z,97376.06
2024-03-13T05:34:18.739Z,97371.21
2024-03-13T05:36:49.307Z,97374.77
2024-03-13T05:39:24.147Z,97384.30
2024-03-13T05:41:54.717Z,97385.14
2024-03-13T05:44:25.214Z,97380.37
2024-03-13T05:46:56.028Z,97380.61
2024-03-13T05:49:26.563Z,97384.17
2024-03-13T05:51:58.491Z,97386.83
2024-03-13T05:54:29.919Z,97382.17
2024-03-13T05:57:00.363Z,97375.23
2024-03-13T05:59:31.516Z,97368.61
2024-03-13T06:02:02.242Z,97368.72
2024-03-13T06:04:35.839Z,97368.39
2024-03-13T06:07:08.772Z,97370.28
2024-03-13T06:09:39.414Z,97374.54
2024-03-13T06:12:09.954Z,97374.42
2024-03-13T06:14:40.628Z,97372.84
2024-03-13T06:17:10.920Z,97375.31
2024-03-13T06:19:41.354Z,97378.12
2024-03-13T06:22:11.821Z,97376.09
2024-03-13T06:24:42.308Z,97380.89
2024-03-13T06:27:17.101Z,97377.02
2024-03-13T06:30:01.014Z,97370.98
2024-03-13T06:32:31.892Z,97365.13
2024-03-13T06:35:04.070Z,97371.55
2024-03-13T06:37:35.294Z,97374.19
2024-03-13T06:40:06.966Z,97370.14
2024-03-13T06:42:37.404Z,97372.86
2024-03-13T06:45:08.482Z,97368.13
2024-03-13T06:47:39.330Z,97366.27
2024-03-13T06:50:10.752Z,97364.80
2024-03-13T06:52:41.513Z,97366.63
2024-03-13T06:55:12.114Z,97360.52
2024-03-13T06:57:42.496Z,97353.65
2024-03-13T07:00:13.280Z,97355.02
2024-03-13T07:02:43.632Z,97352.52
2024-03-13T07:05:16.499Z,97356.95
2024-03-13T07:07:47.065Z,97347.71
2024-03-13T07:10:17.608Z,97348.95
2024-03-13T07:12:48.100Z,97346.31
2024-03-13T07:15:18.877Z,97344.50
2024-03-13T07:17:49.391Z,97344.98
2024-03-13T07:20:19.744Z,97341.29
2024-03-13T07:22:50.182Z,97340.38
2024-03-13T07:25:21.777Z,97332.94
2024-03-13T07:27:52.842Z,97328.24
2024-03-13T07:30:25.893Z,97326.43
2024-03-13T07:32:56.510Z,97328.79
2024-03-13T07:35:27.730Z,97328.14
2024-03-13T07:37:59.709Z,97325.04
2024-03-13T07:40:33.602Z,97327.70
2024-03-13T07:43:04.437Z,97325.42
2024-03-13T07:45:35.151Z,97321.81
2024-03-13T07:48:09.407Z,97324.20
2024-03-13T07:50:41.083Z,97321.96
2024-03-13T07:53:11.538Z,97323.73
2024-03-13T07:55:42.017Z,97323.64
2024-03-13T07:58:13.525Z,97327.70
2024-03-13T08:00:45.053Z,97330.46
2024-03-13T08:03:15.702Z,97329.14
2024-03-13T08:05:46.720Z,97329.64
2024-03-13T09:07:18.816Z,97290.23
2024-03-13T09:09:49.241Z,97290.88
2024-03-13T09:12:19.815Z,97290.92
2024-03-13T09:14:50.837Z,97288.15
2024-03-13T09:17:21.374Z,97289.29
2024-03-13T09:19:53.511Z,97287.20
2024-03-13T09:22:23.945Z,97286.87
2024-03-13T09:24:55.485Z,97277.01
2024-03-13T09:27:25.899Z,97271.28
2024-03-13T09:29:56.675Z,97268.02
2024-03-13T09:32:27.240Z,97267.17
2024-03-13T09:34:57.743Z,97265.30
2024-03-13T09:37:28.733Z,97262.94
2024-03-13T09:39:59.554Z,97258.70
2024-03-13T09:42:30.285Z,97261.20
2024-03-13T09:45:00.859Z,97262.30
2024-03-13T09:47:31.473Z,97258.84
2024-03-13T09:50:04.362Z,97255.61
2024-03-13T09:52:34.776Z,97252.98
2024-03-13T09:55:05.800Z,97251.78
2024-03-13T09:57:36.440Z,97255.77
2024-03-13T10:00:09.689Z,97251.58
2024-03-13T10:02:41.447Z,97242.92
2024-03-13T10:05:12.932Z,97243.03
2024-03-13T10:07:44.103Z,97235.11
2024-03-13T10:10:19.659Z,97233.84
2024-03-13T10:12:50.146Z,97233.67
2024-03-13T10:15:20.908Z,97233.48
2024-03-13T10:17:52.502Z,97230.77
2024-03-13T10:20:24.059Z,97226.59
2024-03-13T10:22:55.521Z,97224.09
2024-03-13T10:25:26.414Z,97223.38
2024-03-13T10:27:56.905Z,97232.02
2024-03-13T10:30:27.981Z,97228.09
2024-03-13T10:32:58.615Z,97223.63
2024-03-13T10:35:29.633Z,97218.20
2024-03-13T10:38:00.070Z,97212.77
2024-03-13T10:40:32.144Z,97208.10
2024-03-13T10:43:02.781Z,97209.45
2024-03-13T10:45:33.388Z,97206.16
2024-03-13T10:48:05.061Z,97208.55
2024-03-13T10:50:35.615Z,97206.16
2024-03-13T10:53:07.253Z,97201.77
2024-03-13T10:55:39.044Z,97201.54
2024-03-13T10:58:10.712Z,97200.88
2024-03-13T11:00:41.590Z,97199.79
2024-03-13T11:03:14.028Z,97205.54
2024-03-13T11:05:45.190Z,97201.44
2024-03-13T11:08:17.400Z,97196.10
2024-03-13T11:11:01.902Z,97201.38
2024-03-13T11:13:41.285Z,97200.79
2024-03-13T11:16:12.303Z,97205.16
2024-03-13T11:18:44.123Z,97203.98
2024-03-13T11:21:14.864Z,97201.83
2024-03-13T11:23:46.392Z,97198.20
2024-03-13T11:26:17.050Z,97197.39
2024-03-13T11:28:48.369Z,97204.54
2024-03-13T11:31:19.165Z,97199.10
2024-03-13T11:33:49.641Z,97200.85
2024-03-13T11:36:20.353Z,97202.59
2024-03-13T11:38:51.064Z,97198.05
2024-03-13T11:41:22.317Z,97201.22
2024-03-13T11:43:56.735Z,97204.73
2024-03-13T11:46:35.415Z,97202.66
2024-03-13T11:49:09.449Z,97205.66
2024-03-13T11:51:41.760Z,97204.17
2024-03-13T11:54:15.409Z,97207.64
2024-03-13T11:56:45.846Z,97205.98
2024-03-13T11:59:18.413Z,97204.94
2024-03-13T12:01:49.551Z,97206.75
2024-03-13T12:04:21.217Z,97209.77
2024-03-13T12:06:51.757Z,97203.79
2024-03-13T12:09:24.508Z,97210.22
2024-03-13T12:11:55.830Z,97206.49
2024-03-13T12:14:26.708Z,97209.27
2024-03-13T12:16:57.953Z,97209.71
2024-03-13T12:19:30.252Z,97206.98
2024-03-13T12:22:00.665Z,97204.42
2024-03-13T12:24:31.675Z,97197.17
2024-03-13T12:27:02.191Z,97200.47
2024-03-13T12:29:36.079Z,97196.37
2024-03-13T12:32:07.264Z,97193.50
2024-03-13T12:34:38.841Z,97195.67
2024-03-13T12:37:11.226Z,97197.95
2024-03-13T12:39:42.157Z,97191.00
2024-03-13T12:42:14.500Z,97193.52
2024-03-13T12:44:44.966Z,97197.33
2024-03-13T12:47:15.551Z,97201.66
2024-03-13T12:49:46.860Z,97209.16
2024-03-13T12:52:19.300Z,97208.46
2024-03-13T12:54:49.779Z,97208.42
2024-03-13T12:57:20.300Z,97204.26
2024-03-13T12:59:53.475Z,97203.80
2024-03-13T13:02:24.642Z,97206.11
2024-03-13T13:04:55.847Z,97203.05
2024-03-13T13:07:26.486Z,97206.23
2024-03-13T13:09:58.868Z,97209.90
2024-03-13T13:12:29.650Z,97210.84
2024-03-13T13:15:00.279Z,97210.09
2024-03-13T13:17:30.748Z,97207.66
2024-03-13T13:20:01.532Z,97211.00
2024-03-13T13:22:32.403Z,97218.88
2024-03-13T13:25:03.153Z,97217.88
2024-03-13T13:27:33.704Z,97224.40
2024-03-13T13:30:05.237Z,97225.00
2024-03-13T13:32:36.975Z,97228.89
2024-03-13T13:35:09.040Z,97230.93
2024-03-13T13:37:40.535Z,97233.30
2024-03-13T13:40:18.532Z,97234.56
2024-03-13T13:42:51.089Z,97244.70
2024-03-13T13:45:25.124Z,97243.47
2024-03-13T13:47:56.558Z,97244.08
2024-03-13T13:50:28.046Z,97250.16
2024-03-13T13:52:59.078Z,97252.13
2024-03-13T13:55:29.579Z,97253.84
2024-03-13T13:58:00.343Z,97259.78
2024-03-13T14:00:33.262Z,97263.27
2024-03-13T14:03:03.937Z,97270.70
2024-03-13T14:05:36.012Z,97270.46
2024-03-13T14:08:08.294Z,97275.39
2024-03-13T14:10:39.273Z,97281.24
2024-03-13T14:13:10.488Z,97283.84
2024-03-13T14:15:41.320Z,97284.55
2024-03-13T14:18:15.773Z,97291.96
2024-03-13T14:20:46.594Z,97296.29
2024-03-13T14:23:17.172Z,97300.20
2024-03-13T14:25:48.135Z,97298.41
2024-03-13T14:28:21.616Z,97301.46
2024-03-13T14:30:53.181Z,97305.95
2024-03-13T14:33:24.196Z,97309.92
2024-03-13T14:35:55.653Z,97313.60
2024-03-13T14:38:27.299Z,97317.73
2024-03-13T14:40:58.258Z,97321.11
2024-03-13T14:43:28.770Z,97326.03
2024-03-13T14:45:59.310Z,97329.17
2024-03-13T14:48:30.130Z,97331.48
2024-03-13T14:51:01.098Z,97339.20
2024-03-13T14:53:32.250Z,97336.77
2024-03-13T14:56:03.021Z,97342.30
2024-03-13T14:58:33.729Z,97343.45
2024-03-13T15:01:04.471Z,97348.92
2024-03-13T15:03:39.852Z,97348.04
2024-03-13T15:06:10.957Z,97350.31
2024-03-13T15:08:41.757Z,97349.66
2024-03-13T15:11:12.727Z,97359.75
2024-03-13T15:13:47.713Z,97364.69
2024-03-13T15:16:18.086Z,97365.15
2024-03-13T15:18:49.816Z,97365.89
2024-03-13T15:21:20.834Z,97368.46
2024-03-13T15:23:51.468Z,97367.55
2024-03-13T15:26:21.849Z,97372.54
2024-03-13T15:28:52.258Z,97378.25
2024-03-13T15:31:22.680Z,97385.05
2024-03-13T15:33:53.466Z,97389.14
2024-03-13T15:36:24.112Z,97393.73
2024-03-13T15:38:54.634Z,97391.48
2024-03-13T15:41:25.318Z,97402.37
2024-03-13T15:43:56.234Z,97404.92
2024-03-13T15:46:28.577Z,97406.46
2024-03-13T15:48:59.666Z,97411.04
2024-03-13T15:51:30.410Z,97417.20
2024-03-13T15:54:01.500Z,97418.73
2024-03-13T15:56:31.841Z,97420.64
2024-03-13T15:59:02.370Z,97424.58
2024-03-13T16:01:33.158Z,97427.11
2024-03-13T16:04:03.615Z,97430.39
2024-03-13T16:06:34.338Z,97437.16
2024-03-13T16:09:05.317Z,97443.33
2024-03-13T16:11:36.173Z,97444.73
2024-03-13T16:14:07.437Z,97447.08
2024-03-13T16:16:38.256Z,97450.85
2024-03-13T16:19:08.898Z,97456.83
2024-03-13T16:21:40.020Z,97460.39
2024-03-13T16:24:13.327Z,97461.05
2024-03-13T16:26:43.873Z,97466.63
2024-03-13T16:29:14.684Z,97468.21
2024-03-13T16:31:45.536Z,97471.69
2024-03-13T16:34:16.117Z,97474.27
2024-03-13T16:36:46.653Z,97477.33
2024-03-13T16:39:19.041Z,97482.91
2024-03-13T16:41:49.745Z,97485.11
2024-03-13T16:44:20.376Z,97488.09
2024-03-13T16:46:51.192Z,97489.34
2024-03-13T16:49:21.824Z,97491.46
2024-03-13T16:51:52.488Z,97491.02
2024-03-13T16:54:23.603Z,97493.74
2024-03-13T16:56:54.050Z,97497.23
2024-03-13T16:59:24.536Z,97500.13
2024-03-13T17:01:55.189Z,97501.11
2024-03-13T17:04:25.825Z,97502.67
2024-03-13T17:06:56.175Z,97506.36
2024-03-13T17:09:28.145Z,97512.80
2024-03-13T17:11:58.918Z,97519.52
2024-03-13T17:14:29.782Z,97520.90
2024-03-13T17:17:00.120Z,97520.33
2024-03-13T17:19:31.787Z,97524.78
2024-03-13T17:22:02.216Z,97530.34
2024-03-13T17:24:33.398Z,97536.14
2024-03-13T17:27:04.248Z,97536.59
2024-03-13T17:29:34.768Z,97542.91
2024-03-13T17:32:07.344Z,97543.50
2024-03-13T17:34:37.790Z,97544.92
2024-03-13T17:37:08.893Z,97546.92
2024-03-13T17:39:39.435Z,97551.09
2024-03-13T17:42:11.458Z,97555.27
2024-03-13T17:44:42.225Z,97555.73
2024-03-13T17:47:14.028Z,97555.40
2024-03-13T17:49:45.472Z,97563.19
2024-03-13T17:52:16.123Z,97564.52
2024-03-13T17:54:46.677Z,97565.21
2024-03-13T17:57:17.020Z,97561.98
2024-03-13T17:59:49.242Z,97562.34
2024-03-13T18:02:20.325Z,97567.88
2024-03-13T18:04:52.205Z,97571.20
2024-03-13T18:07:24.930Z,97572.77
2024-03-13T18:09:56.628Z,97570.48
2024-03-13T18:12:28.350Z,97571.85
2024-03-13T18:14:59.719Z,97573.09
2024-03-13T18:17:30.469Z,97578.55
2024-03-13T18:20:01.632Z,97577.36
2024-03-13T18:22:32.327Z,97579.24
2024-03-13T18:25:02.811Z,97583.93
2024-03-13T18:27:33.977Z,97586.38
2024-03-13T18:30:10.549Z,97585.38
2024-03-13T18:32:44.806Z,97591.28
2024-03-13T18:35:17.878Z,97593.95
2024-03-13T18:37:48.452Z,97593.11
2024-03-13T18:40:21.153Z,97596.63
2024-03-13T18:42:51.516Z,97592.56
2024-03-13T18:45:22.265Z,97590.01
2024-03-13T18:47:54.223Z,97592.95
2024-03-13T18:50:25.842Z,97589.17
2024-03-13T18:52:58.976Z,97589.77
2024-03-13T18:55:29.779Z,97591.65
2024-03-13T18:58:00.944Z,97591.30
2024-03-13T19:00:32.508Z,97597.07
2024-03-13T19:03:04.359Z,97602.72
2024-03-13T19:05:36.928Z,97606.30
2024-03-13T19:08:08.063Z,97607.21
2024-03-13T19:10:38.945Z,97611.63
2024-03-13T19:13:09.434Z,97602.34
2024-03-13T19:15:40.838Z,97599.12
2024-03-13T19:18:11.959Z,97595.04
2024-03-13T19:20:44.345Z,97606.55
2024-03-13T19:23:15.432Z,97608.46
2024-03-13T19:25:45.809Z,97608.33
2024-03-13T19:28:16.251Z,97607.05
2024-03-13T19:30:47.251Z,97605.59
2024-03-13T19:33:17.866Z,97607.03
2024-03-13T19:35:51.036Z,97597.04
2024-03-13T19:38:22.082Z,97600.21
2024-03-13T19:40:52.606Z,97609.85
2024-03-13T19:43:23.283Z,97615.55
2024-03-13T19:45:54.520Z,97613.42
2024-03-13T19:48:25.403Z,97614.05
2024-03-13T19:50:56.306Z,97608.52
2024-03-13T19:53:28.799Z,97618.27
2024-03-13T19:55:59.881Z,97614.74
2024-03-13T19:58:30.517Z,97612.89
2024-03-13T20:01:01.659Z,97610.63
2024-03-13T20:03:34.344Z,97604.39
2024-03-13T20:06:04.908Z,97601.33
2024-03-13T20:08:36.447Z,97603.02
2024-03-13T20:11:07.651Z,97608.98
2024-03-13T20:13:38.844Z,97609.86
2024-03-13T20:16:09.769Z,97615.35
2024-03-13T20:18:40.771Z,97624.09
2024-03-13T20:21:11.838Z,97623.51
2024-03-13T20:23:43.537Z,97620.73
2024-03-13T20:26:14.016Z,97614.58
2024-03-13T20:28:47.118Z,97615.33
2024-03-13T20:31:18.039Z,97609.25
2024-03-13T20:33:48.541Z,97612.05
2024-03-13T20:36:20.754Z,97611.91
2024-03-13T20:38:52.929Z,97615.25
2024-03-13T20:41:23.574Z,97614.33
2024-03-13T20:43:53.964Z,97613.63
2024-03-13T20:46:24.495Z,97610.27
2024-03-13T20:48:56.009Z,97607.59
2024-03-13T20:51:26.802Z,97606.16
2024-03-13T20:53:57.644Z,97604.50
2024-03-13T20:56:28.714Z,97598.91
2024-03-13T20:58:59.882Z,97590.92
2024-03-13T21:01:31.028Z,97590.95
2024-03-13T21:04:02.172Z,97596.15
2024-03-13T21:06:33.739Z,97596.77
2024-03-13T21:09:05.035Z,97597.30
2024-03-13T21:11:35.677Z,97595.89
2024-03-13T21:14:05.997Z,97597.98
2024-03-13T21:16:36.541Z,97601.64
2024-03-13T21:19:06.943Z,97600.48
2024-03-13T21:21:37.580Z,97596.28
2024-03-13T21:24:08.423Z,97595.54
2024-03-13T21:26:41.888Z,97595.58
2024-03-13T21:29:15.702Z,97596.68
2024-03-13T21:31:46.719Z,97593.52
2024-03-13T21:34:21.351Z,97594.77
2024-03-13T21:36:58.577Z,97592.68
2024-03-13T21:39:29.209Z,97595.19
2024-03-13T21:41:59.795Z,97595.68
2024-03-13T21:44:31.591Z,97592.19
2024-03-13T21:47:02.079Z,97595.21
2024-03-13T21:49:34.057Z,97594.86
2024-03-13T21:52:05.107Z,97596.58
2024-03-13T21:54:35.822Z,97597.90
2024-03-13T21:57:07.833Z,97596.73
2024-03-13T21:59:38.801Z,97600.14
2024-03-13T22:02:09.307Z,97600.46
2024-03-13T22:04:40.514Z,97602.89
2024-03-13T22:07:11.295Z,97603.92
2024-03-13T22:09:41.916Z,97601.15
2024-03-13T22:12:12.530Z,97599.86
2024-03-13T22:14:44.576Z,97597.73
2024-03-13T22:17:15.838Z,97596.66
2024-03-13T22:19:46.669Z,97599.19
2024-03-13T22:22:17.091Z,97598.02
2024-03-13T22:24:48.683Z,97598.77
2024-03-13T22:27:19.169Z,97601.70
2024-03-13T22:29:50.496Z,97599.80
2024-03-13T22:32:21.224Z,97595.66
2024-03-13T22:34:51.582Z,97593.95
2024-03-13T22:37:22.236Z,97595.83
2024-03-13T22:39:52.766Z,97596.69
2024-03-13T22:42:23.979Z,97595.49
2024-03-13T22:44:55.116Z,97595.25
2024-03-13T22:47:28.409Z,97594.86
2024-03-13T22:50:00.857Z,97596.90
2024-03-13T22:52:31.415Z,97595.05
2024-03-13T22:55:01.785Z,97588.14
2024-03-13T22:57:32.599Z,97590.50
2024-03-13T23:00:12.271Z,97586.05
2024-03-13T23:02:44.665Z,97581.62
2024-03-13T23:05:15.556Z,97581.95
2024-03-13T23:07:52.584Z,97578.28
2024-03-13T23:10:23.414Z,97575.02
2024-03-13T23:12:54.553Z,97572.25
2024-03-13T23:15:27.670Z,97569.28
2024-03-13T23:17:59.317Z,97568.88
2024-03-13T23:20:38.362Z,97573.44
2024-03-13T23:23:09.397Z,97572.05
2024-03-13T23:25:39.989Z,97566.50
2024-03-13T23:28:10.758Z,97564.77
2024-03-13T23:30:41.940Z,97555.30
2024-03-13T23:33:13.309Z,97553.94
2024-03-13T23:35:44.696Z,97553.13
2024-03-13T23:38:15.943Z,97551.50
2024-03-13T23:40:47.117Z,97550.73
2024-03-13T23:43:18.074Z,97545.80
2024-03-13T23:45:49.228Z,97543.64
2024-03-13T23:48:21.101Z,97546.35
2024-03-13T23:50:52.341Z,97547.59
2024-03-13T23:53:22.718Z,97545.80
2024-03-13T23:55:55.207Z,97552.08
2024-03-13T23:58:26.303Z,97550.35
